Wednesday, January 17, 2018, 8:20 AM EST
Back to Local

KDSV, Dansville Municipal Airport

Location: Dansville, NY, United States Lat: 42.567
Local Time: 8:20 AM EST (13:20 GMT) Lon: -77.717
Time Zone: US/Eastern Elev: 662 ft

Show me the last for .
Show Decoded

2018-01-17 07:54 METAR KDSV 171254Z AUTO 00000KT 8SM CLR M17/M20 A3040 RMK AO2 SLP319 I1001
                 T11721200 =
2018-01-17 06:54 METAR KDSV 171154Z AUTO 00000KT 8SM CLR M17/M19 A3041 RMK AO2 SLP320 60000 70002
                 T11671189 11078 21178 55000 =
2018-01-17 05:54 METAR KDSV 171054Z AUTO 00000KT 9SM CLR M17/M19 A3041 RMK AO2 SLP320 T11671194 =
2018-01-17 04:54 METAR KDSV 170954Z AUTO 00000KT 10SM CLR M12/M17 A3040 RMK AO2 SLP317 T11221167
                 =
2018-01-17 04:28 METAR KDSV 170928Z AUTO 00000KT 10SM FEW028 BKN037 M11/M17 A3041 RMK AO2
                 T11061167 =
2018-01-17 03:54 METAR KDSV 170854Z AUTO VRB05KT 9SM OVC026 M09/M16 A3041 RMK AO2 SNE52 SLP317
                 P0000 60000 T10941156 53015 =
2018-01-17 03:01 METAR KDSV 170801Z AUTO 33004KT 5SM -SN BKN024 OVC031 M09/M13 A3040 RMK AO2
                 P0000 T10891133 =
2018-01-17 02:54 METAR KDSV 170754Z AUTO 33005KT 6SM -SN SCT024 OVC031 M09/M13 A3039 RMK AO2
                 SNE02B38 SLP311 P0000 T10891133 =
2018-01-17 02:38 METAR KDSV 170738Z AUTO 34005KT 10SM -SN FEW024 OVC030 M09/M13 A3039 RMK AO2
                 SNE02B38 P0000 T10891133 =
2018-01-17 01:54 METAR KDSV 170654Z AUTO 29004KT 7SM -SN FEW020 OVC029 M08/M13 A3037 RMK AO2
                 SLP305 P0000 T10831133 =
2018-01-17 01:30 METAR KDSV 170630Z AUTO 34007KT 5SM -SN OVC030 M08/M12 A3036 RMK AO2 P0000
                 T10831117 =
2018-01-17 01:06 METAR KDSV 170606Z AUTO 34008KT 3SM -SN OVC028 M08/M11 A3036 RMK AO2 P0000
                 T10781111 =
2018-01-17 00:54 METAR KDSV 170554Z AUTO 34008KT 2 1/2SM -SN OVC027 M08/M11 A3036 RMK AO2 SLP301
                 P0000 60000 T10781106 11039 21078 50006 =
2018-01-17 00:41 METAR KDSV 170541Z AUTO 34007KT 2 1/2SM -SN OVC026 M08/M11 A3036 RMK AO2 P0000
                 T10781106 =
2018-01-16 23:54 METAR KDSV 170454Z AUTO 34008KT 4SM -SN OVC022 M07/M10 A3036 RMK AO2 SLP301
                 P0000 T10721100 410171072 =
2018-01-16 23:05 METAR KDSV 170405Z AUTO 34012KT 4SM -SN BR OVC017 M07/M09 A3036 RMK AO2 P0000
                 T10671089 =
2018-01-16 22:54 METAR KDSV 170354Z AUTO 34011KT 2 1/2SM -SN BR OVC017 M06/M08 A3035 RMK AO2
                 SLP298 P0000 T10611083 =
2018-01-16 22:46 METAR KDSV 170346Z AUTO 33011KT 2 1/2SM -SN BR OVC015 M06/M08 A3035 RMK AO2
                 P0000 T10561078 =
2018-01-16 21:54 METAR KDSV 170254Z AUTO 35005KT 4SM -SN BR BKN012 OVC017 M04/M07 A3034 RMK AO2
                 SLP295 P0000 60000 T10441067 51003 =
2018-01-16 20:54 METAR KDSV 170154Z AUTO 34004KT 3SM -SN BR OVC016 M04/M06 A3034 RMK AO2 SNB21
                 SLP293 P0000 T10441061 =
2018-01-16 20:36 METAR KDSV 170136Z AUTO 35004KT 4SM -SN BR SCT011 BKN023 OVC029 M05/M07 A3034
                 RMK AO2 SNB21 P0000 T10501067 =
2018-01-16 19:54 METAR KDSV 170054Z AUTO 00000KT 5SM BR FEW032 SCT042 OVC080 M05/M06 A3033 RMK
                 AO2 SNE52 SLP291 P0000 T10501061 =
2018-01-16 19:29 METAR KDSV 170029Z AUTO 00000KT 5SM -SN BR FEW019 BKN032 OVC040 M04/M06 A3034
                 RMK AO2 P0000 T10391061 =
2018-01-16 18:54 METAR KDSV 162354Z AUTO 32005KT 4SM -SN BR BKN025 OVC034 M04/M06 A3034 RMK AO2
                 SLP294 P0000 60001 T10391056 11017 21039 53004 =
2018-01-16 18:48 METAR KDSV 162348Z AUTO 32005KT 3SM -SN BR BKN025 OVC032 M04/M06 A3034 RMK AO2
                 P0000 =
2018-01-16 17:54 METAR KDSV 162254Z AUTO 35004KT 1 3/4SM -SN BR OVC025 M04/M06 A3033 RMK AO2
                 SLP291 P0000 T10391061 =
2018-01-16 17:46 METAR KDSV 162246Z AUTO 34004KT 2SM -SN BR OVC025 M04/M06 A3034 RMK AO2 P0000
                 T10391061 =
2018-01-16 17:30 METAR KDSV 162230Z AUTO 34003KT 1 3/4SM -SN BR OVC029 M04/M06 A3033 RMK AO2
                 P0000 T10391061 =
2018-01-16 17:27 METAR KDSV 162227Z AUTO 00000KT 2SM -SN BR OVC031 M04/M06 A3033 RMK AO2 P0000
                 T10391056 =
2018-01-16 17:20 METAR KDSV 162220Z AUTO 00000KT 1 3/4SM -SN BR OVC035 M04/M06 A3033 RMK AO2
                 P0000 T10391061 =
2018-01-16 17:03 METAR KDSV 162203Z AUTO 32003KT 2 1/2SM -SN OVC034 M03/M06 A3033 RMK AO2 P0000
                 T10331061 =
2018-01-16 16:54 METAR KDSV 162154Z AUTO 00000KT 1 3/4SM -SN OVC034 M03/M07 A3033 RMK AO2 SNB21
                 SLP289 P0000 T10331067 =
2018-01-16 16:46 METAR KDSV 162146Z AUTO 32003KT 2SM -SN OVC032 M03/M07 A3033 RMK AO2 SNB21 P0000
                 T10331067 =
2018-01-16 15:54 METAR KDSV 162054Z AUTO 00000KT 5SM HZ BKN037 OVC050 M03/M07 A3033 RMK AO2
                 SNB19E54 SLP288 P0001 60001 T10281067 56004 =
2018-01-16 14:54 METAR KDSV 161954Z AUTO 04005KT 9SM OVC035 M03/M07 A3033 RMK AO2 SNB43E54 SLP288
                 P0000 T10281072 =
2018-01-16 13:54 METAR KDSV 161854Z AUTO 33005KT 10SM OVC039 M02/M08 A3033 RMK AO2 SLP288
                 T10221078 =
2018-01-16 12:54 METAR KDSV 161754Z AUTO 02003KT 8SM SCT026 OVC032 M02/M07 A3034 RMK AO2 SNE1658
                 SLP293 P0001 60001 T10221072 11022 21056 55014 =
2018-01-16 12:51 METAR KDSV 161751Z AUTO 02003KT 9SM BKN028 OVC034 M03/M07 A3034 RMK AO2 SNE1658
                 P0001 =
2018-01-16 12:19 METAR KDSV 161719Z AUTO 00000KT 10SM SCT026 OVC032 M02/M07 A3036 RMK AO2 SNE1658
                 P0000 T10221072 =
2018-01-16 12:12 METAR KDSV 161712Z AUTO 00000KT 10SM BKN026 OVC034 M02/M07 A3036 RMK AO2 SNE1658
                 P0000 T10221072 =
2018-01-16 11:54 METAR KDSV 161654Z AUTO 18003KT 7SM -SN OVC033 M03/M08 A3036 RMK AO2 SNB54
                 SLP301 P0000 T10281078 =
2018-01-16 10:54 METAR KDSV 161554Z AUTO 15005KT 10SM BKN031 BKN038 OVC049 M03/M08 A3038 RMK AO2
                 SLP308 T10331078 =
2018-01-16 09:54 METAR KDSV 161454Z AUTO 00000KT 8SM OVC035 M04/M08 A3038 RMK AO2 SLP307
                 T10441078 51008 =
2018-01-16 09:27 METAR KDSV 161427Z AUTO 17003KT 10SM SCT029 BKN038 OVC050 M05/M08 A3038 RMK AO2
                 T10501078 =
2018-01-16 08:54 METAR KDSV 161354Z AUTO 13004KT 10SM BKN028 OVC047 M06/M08 A3038 RMK AO2 SLP306
                 T10561083 =
2018-01-16 08:51 METAR KDSV 161351Z AUTO 12003KT 10SM BKN028 OVC047 M05/M08 A3038 RMK AO2 =

Support USWX by starting your Amazon purchase here.